Time;durP1;ratioP1;P1;durP2;ratioP2;P2;SDS_P1;SDS_P2;PMS_P1;PMS_P2;Temp;Humidity;BMP_temperature;BMP_pressure;BME280_temperature;BME280_humidity;BME280_pressure;Samples;Min_cycle;Max_cycle;Signal;HPM_P1;HPM_P2
2021/04/07 00:00:33;;;;;;;2.17;1.23;;;;;;;;;;5070146;28;20031;-83
2021/04/07 00:02:58;;;;;;;5.00;1.30;;;;;;;;;;5072218;28;20270;-83
2021/04/07 00:05:28;;;;;;;5.73;1.10;;;;;;;;;;5068354;28;20814;-83
2021/04/07 00:07:54;;;;;;;2.83;1.70;;;;;;;;;;5075630;28;20036;-83
2021/04/07 00:10:21;;;;;;;1.97;0.73;;;;;;;;;;5064804;28;20279;-83
2021/04/07 00:12:46;;;;;;;3.40;1.17;;;;;;;;;;5070187;28;20373;-83
2021/04/07 00:15:17;;;;;;;3.53;1.27;;;;;;;;;;5073838;28;20278;-83
2021/04/07 00:17:42;;;;;;;2.27;0.83;;;;;;;;;;5072104;28;20439;-83
2021/04/07 00:20:09;;;;;;;4.93;1.63;;;;;;;;;;5070805;28;20279;-83
2021/04/07 00:22:34;;;;;;;2.60;1.23;;;;;;;;;;5066533;28;20036;-83
2021/04/07 00:24:59;;;;;;;8.53;1.23;;;;;;;;;;5071872;28;20767;-83
2021/04/07 00:27:27;;;;;;;9.80;1.50;;;;;;;;;;5074981;28;20028;-83
2021/04/07 00:29:52;;;;;;;3.40;1.00;;;;;;;;;;5072454;28;20020;-83
2021/04/07 00:32:17;;;;;;;6.07;1.60;;;;;;;;;;5074522;28;20336;-83
2021/04/07 00:34:43;;;;;;;2.43;0.90;;;;;;;;;;5073097;28;20427;-83
2021/04/07 00:37:08;;;;;;;5.20;1.53;;;;;;;;;;5071383;28;20017;-83
2021/04/07 00:39:33;;;;;;;4.23;1.50;;;;;;;;;;5065490;28;20021;-83
2021/04/07 00:42:03;;;;;;;8.87;1.80;;;;;;;;;;5071299;28;20032;-83
2021/04/07 00:44:29;;;;;;;6.50;1.37;;;;;;;;;;5049657;28;20024;-83
2021/04/07 00:46:54;;;;;;;2.80;0.90;;;;;;;;;;5073833;28;20305;-83
2021/04/07 00:49:19;;;;;;;11.63;1.60;;;;;;;;;;5072458;28;20546;-84
2021/04/07 00:51:45;;;;;;;4.57;1.10;;;;;;;;;;5070913;28;20029;-83
2021/04/07 00:54:10;;;;;;;6.63;1.77;;;;;;;;;;5074132;28;20032;-83
2021/04/07 00:56:35;;;;;;;8.03;1.10;;;;;;;;;;5071157;28;20033;-83
2021/04/07 00:59:01;;;;;;;8.47;1.40;;;;;;;;;;5072739;28;20021;-83
2021/04/07 01:01:26;;;;;;;4.73;1.23;;;;;;;;;;5067636;22;20075;-68
2021/04/07 01:03:51;;;;;;;4.53;1.00;;;;;;;;;;5045462;28;20060;-68
2021/04/07 01:06:17;;;;;;;5.00;1.23;;;;;;;;;;5040346;28;20028;-68
2021/04/07 01:08:42;;;;;;;3.83;1.43;;;;;;;;;;5048511;28;20039;-68
2021/04/07 01:11:07;;;;;;;6.37;1.23;;;;;;;;;;5040786;28;20039;-68
2021/04/07 01:13:33;;;;;;;7.70;1.27;;;;;;;;;;5044789;28;20025;-68
2021/04/07 01:15:58;;;;;;;3.03;0.93;;;;;;;;;;5046830;28;20027;-68
2021/04/07 01:18:26;;;;;;;10.33;1.40;;;;;;;;;;5047800;28;20025;-68
2021/04/07 01:20:51;;;;;;;1.87;1.23;;;;;;;;;;5045727;28;20017;-68
2021/04/07 01:23:17;;;;;;;3.50;1.10;;;;;;;;;;5043510;28;20275;-68
2021/04/07 01:25:43;;;;;;;4.03;1.53;;;;;;;;;;5047042;28;20071;-68
2021/04/07 01:28:08;;;;;;;4.57;1.43;;;;;;;;;;5041748;28;20311;-68
2021/04/07 01:30:45;;;;;;;3.90;1.60;;;;;;;;;;5048950;28;20052;-68
2021/04/07 01:33:17;;;;;;;1.60;0.93;;;;;;;;;;5049054;28;20404;-68
2021/04/07 01:35:42;;;;;;;7.77;1.30;;;;;;;;;;5049026;28;20264;-68
2021/04/07 01:38:07;;;;;;;3.50;1.93;;;;;;;;;;5047417;28;21001;-68
2021/04/07 01:40:33;;;;;;;9.13;1.20;;;;;;;;;;5047735;28;20021;-68
2021/04/07 01:42:58;;;;;;;4.73;1.30;;;;;;;;;;5051854;28;20028;-68
2021/04/07 01:45:25;;;;;;;2.90;1.07;;;;;;;;;;5046836;28;20044;-68
2021/04/07 01:47:50;;;;;;;7.17;2.10;;;;;;;;;;5040428;28;20179;-68
2021/04/07 01:50:15;;;;;;;5.83;1.63;;;;;;;;;;5045725;28;20354;-68
2021/04/07 01:52:41;;;;;;;5.27;1.50;;;;;;;;;;5047673;28;20420;-68
2021/04/07 01:55:06;;;;;;;7.83;1.53;;;;;;;;;;5045211;28;20025;-68
2021/04/07 01:57:32;;;;;;;4.50;1.50;;;;;;;;;;5042649;28;20392;-68
2021/04/07 01:59:57;;;;;;;2.13;0.93;;;;;;;;;;5045449;28;20103;-68
2021/04/07 02:02:22;;;;;;;4.87;1.33;;;;;;;;;;5034655;28;20049;-68
2021/04/07 02:04:47;;;;;;;2.00;1.13;;;;;;;;;;5024602;28;20021;-67
2021/04/07 02:07:14;;;;;;;3.13;1.40;;;;;;;;;;5019619;28;20030;-68
2021/04/07 02:09:39;;;;;;;4.27;1.20;;;;;;;;;;5027296;28;20465;-68
2021/04/07 02:12:05;;;;;;;7.93;1.67;;;;;;;;;;5027893;28;20834;-67
2021/04/07 02:14:30;;;;;;;13.17;2.63;;;;;;;;;;5020293;28;20116;-68
2021/04/07 02:16:56;;;;;;;4.90;1.30;;;;;;;;;;5018084;28;20029;-68
2021/04/07 02:19:22;;;;;;;5.20;2.37;;;;;;;;;;5021924;28;20096;-68
2021/04/07 02:22:07;;;;;;;5.03;1.20;;;;;;;;;;5025669;28;20485;-68
2021/04/07 02:24:34;;;;;;;6.37;1.67;;;;;;;;;;5008843;28;20063;-68
2021/04/07 02:27:08;;;;;;;5.77;1.50;;;;;;;;;;5034563;28;20279;-68
2021/04/07 02:29:34;;;;;;;7.50;1.20;;;;;;;;;;5027334;28;20285;-68
2021/04/07 02:31:59;;;;;;;2.60;1.10;;;;;;;;;;5025449;28;20281;-68
2021/04/07 02:34:24;;;;;;;4.40;1.57;;;;;;;;;;5026712;28;20028;-68
2021/04/07 02:36:49;;;;;;;5.10;1.07;;;;;;;;;;5027597;28;20026;-68
2021/04/07 02:39:15;;;;;;;7.50;1.33;;;;;;;;;;5023315;28;20094;-68
2021/04/07 02:42:08;;;;;;;4.33;1.20;;;;;;;;;;5027529;28;20057;-68
2021/04/07 02:44:33;;;;;;;10.97;1.60;;;;;;;;;;5041355;28;20496;-68
2021/04/07 02:46:59;;;;;;;5.00;1.63;;;;;;;;;;5010287;28;20265;-68
2021/04/07 02:49:24;;;;;;;3.30;1.03;;;;;;;;;;5023491;28;20124;-67
2021/04/07 02:51:52;;;;;;;8.10;1.60;;;;;;;;;;5027868;28;20492;-68
2021/04/07 02:54:18;;;;;;;4.53;1.20;;;;;;;;;;5027018;28;20021;-68
2021/04/07 02:56:43;;;;;;;8.00;1.20;;;;;;;;;;5035153;28;20359;-68
2021/04/07 02:59:09;;;;;;;5.40;1.53;;;;;;;;;;5028810;28;20018;-67
2021/04/07 03:01:34;;;;;;;5.50;1.20;;;;;;;;;;5026608;28;20049;-68
2021/04/07 03:03:59;;;;;;;5.50;1.10;;;;;;;;;;5032910;28;20040;-68
2021/04/07 03:06:25;;;;;;;7.07;1.47;;;;;;;;;;5024662;28;20025;-68
2021/04/07 03:08:50;;;;;;;8.40;1.50;;;;;;;;;;5031188;28;20374;-68
2021/04/07 03:11:16;;;;;;;5.43;1.13;;;;;;;;;;5029911;28;20100;-68
2021/04/07 03:13:41;;;;;;;2.53;1.23;;;;;;;;;;5031086;28;20117;-68
2021/04/07 03:16:06;;;;;;;1.37;0.90;;;;;;;;;;5032913;28;20112;-68
2021/04/07 03:18:32;;;;;;;2.33;1.10;;;;;;;;;;5032105;28;20022;-68
2021/04/07 03:20:57;;;;;;;5.07;1.37;;;;;;;;;;5028067;28;20013;-68
2021/04/07 03:23:22;;;;;;;6.10;1.27;;;;;;;;;;5030032;28;20108;-68
2021/04/07 03:25:48;;;;;;;3.83;1.70;;;;;;;;;;5024532;28;20028;-68
2021/04/07 03:28:13;;;;;;;4.07;1.20;;;;;;;;;;5030536;28;20252;-68
2021/04/07 03:30:51;;;;;;;2.30;1.20;;;;;;;;;;5032815;28;20036;-68
2021/04/07 03:33:19;;;;;;;7.47;1.63;;;;;;;;;;5021682;28;20018;-68
2021/04/07 03:35:45;;;;;;;5.40;1.57;;;;;;;;;;5030742;28;20280;-68
2021/04/07 03:38:10;;;;;;;3.83;1.20;;;;;;;;;;5030654;28;20268;-68
2021/04/07 03:40:36;;;;;;;4.20;1.20;;;;;;;;;;5030865;28;20112;-67
2021/04/07 03:43:05;;;;;;;9.63;1.83;;;;;;;;;;5028428;28;20021;-67
2021/04/07 03:45:30;;;;;;;3.93;0.90;;;;;;;;;;5020102;28;20021;-68
2021/04/07 03:47:56;;;;;;;4.77;1.30;;;;;;;;;;5029049;28;20287;-68
2021/04/07 03:50:21;;;;;;;4.10;1.07;;;;;;;;;;5012591;28;20050;-68
2021/04/07 03:52:46;;;;;;;5.53;1.97;;;;;;;;;;5015640;28;20401;-68
2021/04/07 03:55:12;;;;;;;4.20;1.37;;;;;;;;;;5010057;28;20440;-68
2021/04/07 03:57:37;;;;;;;5.50;1.50;;;;;;;;;;5026978;28;20017;-68
2021/04/07 04:00:03;;;;;;;2.80;1.17;;;;;;;;;;5028933;28;20101;-68
2021/04/07 04:02:29;;;;;;;7.97;1.40;;;;;;;;;;5030045;28;20064;-68
2021/04/07 04:04:54;;;;;;;3.50;1.20;;;;;;;;;;5021701;28;20272;-68
2021/04/07 04:07:20;;;;;;;7.57;1.40;;;;;;;;;;5022420;28;20132;-68
2021/04/07 04:09:46;;;;;;;3.40;1.33;;;;;;;;;;5030925;28;20377;-68
2021/04/07 04:12:11;;;;;;;2.30;1.13;;;;;;;;;;5022480;28;20065;-69
2021/04/07 04:14:37;;;;;;;13.20;1.50;;;;;;;;;;5011833;28;20104;-68
2021/04/07 04:17:02;;;;;;;4.47;1.30;;;;;;;;;;5022388;28;20022;-68
2021/04/07 04:19:28;;;;;;;7.50;1.50;;;;;;;;;;5023741;28;20287;-68
2021/04/07 04:21:53;;;;;;;5.23;1.10;;;;;;;;;;5025757;28;20533;-68
2021/04/07 04:24:18;;;;;;;4.63;1.57;;;;;;;;;;5015348;28;20022;-68
2021/04/07 04:26:44;;;;;;;5.47;1.43;;;;;;;;;;5032011;28;20025;-68
2021/04/07 04:29:09;;;;;;;7.93;1.50;;;;;;;;;;5022064;28;20039;-68
2021/04/07 04:31:34;;;;;;;3.40;1.27;;;;;;;;;;5026475;28;20063;-68
2021/04/07 04:33:59;;;;;;;9.23;1.63;;;;;;;;;;5030414;28;20045;-68
2021/04/07 04:36:25;;;;;;;5.73;1.30;;;;;;;;;;5029392;28;20075;-68
2021/04/07 04:38:50;;;;;;;3.63;1.30;;;;;;;;;;5025214;28;20022;-68
2021/04/07 04:41:15;;;;;;;4.73;1.20;;;;;;;;;;5025122;28;20088;-68
2021/04/07 04:43:40;;;;;;;3.93;1.70;;;;;;;;;;5022416;28;20402;-68
2021/04/07 04:46:07;;;;;;;3.90;1.33;;;;;;;;;;5015713;28;20032;-68
2021/04/07 04:48:32;;;;;;;3.17;1.30;;;;;;;;;;5029665;28;20025;-68
2021/04/07 04:50:57;;;;;;;5.10;1.60;;;;;;;;;;5028080;28;20283;-68
2021/04/07 04:53:22;;;;;;;3.40;1.20;;;;;;;;;;5028834;28;20161;-68
2021/04/07 04:55:48;;;;;;;3.90;1.30;;;;;;;;;;5021604;28;20359;-68
2021/04/07 04:58:13;;;;;;;5.87;1.40;;;;;;;;;;5023584;28;20129;-68
2021/04/07 05:00:38;;;;;;;6.70;1.73;;;;;;;;;;5021680;28;20037;-68
2021/04/07 05:03:03;;;;;;;5.93;1.27;;;;;;;;;;5044823;28;20045;-68
2021/04/07 05:05:29;;;;;;;8.10;1.30;;;;;;;;;;5047949;28;20134;-68
2021/04/07 05:07:54;;;;;;;2.80;1.43;;;;;;;;;;5039209;28;20460;-68
2021/04/07 05:10:19;;;;;;;6.80;1.37;;;;;;;;;;5047278;28;20060;-68
2021/04/07 05:12:45;;;;;;;4.10;1.20;;;;;;;;;;5041207;28;20040;-68
2021/04/07 05:15:10;;;;;;;3.20;1.53;;;;;;;;;;5047501;28;20036;-68
2021/04/07 05:17:36;;;;;;;2.93;1.30;;;;;;;;;;5041793;28;20041;-68
2021/04/07 05:20:03;;;;;;;3.83;1.20;;;;;;;;;;5037976;28;20021;-68
2021/04/07 05:22:28;;;;;;;2.57;1.00;;;;;;;;;;5043879;28;20045;-68
2021/04/07 05:24:53;;;;;;;9.20;1.53;;;;;;;;;;5040084;28;20682;-68
2021/04/07 05:27:19;;;;;;;5.40;1.83;;;;;;;;;;5040770;28;20116;-68
2021/04/07 05:29:44;;;;;;;3.47;1.10;;;;;;;;;;5040940;28;20457;-69
2021/04/07 05:32:09;;;;;;;2.50;1.00;;;;;;;;;;5046190;28;20108;-68
2021/04/07 05:34:35;;;;;;;5.43;1.70;;;;;;;;;;5042896;28;20029;-68
2021/04/07 05:37:00;;;;;;;5.23;1.83;;;;;;;;;;5044884;28;20014;-68
2021/04/07 05:39:25;;;;;;;5.40;1.97;;;;;;;;;;5041105;28;20043;-68
2021/04/07 05:41:51;;;;;;;4.00;1.67;;;;;;;;;;5044158;28;20028;-68
2021/04/07 05:44:16;;;;;;;6.07;1.80;;;;;;;;;;5044611;28;20064;-69
2021/04/07 05:46:41;;;;;;;4.67;1.80;;;;;;;;;;5045150;28;20528;-69
2021/04/07 05:49:06;;;;;;;6.90;1.73;;;;;;;;;;5042965;28;20036;-69
2021/04/07 05:51:32;;;;;;;4.63;1.73;;;;;;;;;;5036448;28;20036;-69
2021/04/07 05:53:57;;;;;;;5.00;1.40;;;;;;;;;;5039788;28;20014;-69
2021/04/07 05:56:22;;;;;;;3.97;1.33;;;;;;;;;;5041022;28;20022;-69
2021/04/07 05:58:47;;;;;;;3.93;1.60;;;;;;;;;;5037378;28;20071;-69
2021/04/07 06:01:13;;;;;;;5.13;1.70;;;;;;;;;;5039884;28;20060;-69
2021/04/07 06:03:38;;;;;;;4.80;1.70;;;;;;;;;;5028228;28;20509;-69
2021/04/07 06:06:05;;;;;;;8.37;1.50;;;;;;;;;;5037852;28;20107;-69
2021/04/07 06:08:30;;;;;;;7.93;1.60;;;;;;;;;;5038712;28;20037;-69
2021/04/07 06:10:55;;;;;;;2.30;1.10;;;;;;;;;;5041064;28;20637;-69
2021/04/07 06:13:21;;;;;;;4.87;2.03;;;;;;;;;;5047838;28;20091;-69
2021/04/07 06:15:46;;;;;;;5.33;1.20;;;;;;;;;;5040547;28;20025;-68
2021/04/07 06:18:13;;;;;;;4.57;1.20;;;;;;;;;;5042495;28;20030;-69
2021/04/07 06:20:40;;;;;;;5.67;1.50;;;;;;;;;;5030719;28;20021;-69
2021/04/07 06:23:06;;;;;;;2.63;1.00;;;;;;;;;;5030273;28;20319;-69
2021/04/07 06:25:32;;;;;;;3.57;1.20;;;;;;;;;;5041826;28;20608;-69
2021/04/07 06:27:59;;;;;;;4.80;1.33;;;;;;;;;;5039926;28;20326;-69
2021/04/07 06:30:41;;;;;;;3.33;1.00;;;;;;;;;;5037175;28;20257;-69
2021/04/07 06:33:08;;;;;;;3.20;1.13;;;;;;;;;;5022627;28;20787;-68
2021/04/07 06:35:33;;;;;;;4.13;1.50;;;;;;;;;;5049425;28;20362;-69
2021/04/07 06:37:59;;;;;;;4.60;1.07;;;;;;;;;;5039153;28;20252;-69
2021/04/07 06:40:24;;;;;;;10.37;1.27;;;;;;;;;;5047867;28;20021;-69
2021/04/07 06:42:50;;;;;;;8.07;1.37;;;;;;;;;;5038369;28;20259;-68
2021/04/07 06:45:15;;;;;;;2.30;0.83;;;;;;;;;;5019730;28;20020;-69
2021/04/07 06:47:41;;;;;;;2.10;1.30;;;;;;;;;;5043039;28;20027;-69
2021/04/07 06:50:06;;;;;;;2.73;1.10;;;;;;;;;;5039060;28;20047;-69
2021/04/07 06:52:32;;;;;;;2.77;1.10;;;;;;;;;;5043702;28;20087;-68
2021/04/07 06:54:57;;;;;;;2.40;1.20;;;;;;;;;;5032972;28;20108;-69
2021/04/07 06:57:22;;;;;;;8.43;2.50;;;;;;;;;;5046717;28;20092;-69
2021/04/07 06:59:49;;;;;;;3.27;1.40;;;;;;;;;;5035950;28;20511;-68
2021/04/07 07:02:14;;;;;;;8.73;1.57;;;;;;;;;;5037815;28;20045;-68
2021/04/07 07:04:40;;;;;;;5.27;1.77;;;;;;;;;;5038851;28;20276;-69
2021/04/07 07:07:06;;;;;;;2.97;1.30;;;;;;;;;;5035793;28;20014;-69
2021/04/07 07:09:31;;;;;;;4.20;1.10;;;;;;;;;;5035535;28;20049;-69
2021/04/07 07:11:56;;;;;;;1.60;0.90;;;;;;;;;;5048008;28;20439;-69
2021/04/07 07:14:22;;;;;;;2.70;1.37;;;;;;;;;;5032486;28;20086;-69
2021/04/07 07:16:48;;;;;;;2.07;1.10;;;;;;;;;;5039842;28;20488;-69
2021/04/07 07:19:39;;;;;;;1.90;1.00;;;;;;;;;;5039603;28;20036;-69
2021/04/07 07:22:06;;;;;;;3.97;1.97;;;;;;;;;;5047636;28;20314;-69
2021/04/07 07:24:36;;;;;;;3.07;1.40;;;;;;;;;;5039219;28;20624;-69
2021/04/07 07:27:03;;;;;;;2.63;1.33;;;;;;;;;;5044670;28;20335;-69
2021/04/07 07:29:30;;;;;;;4.10;1.37;;;;;;;;;;5044730;28;20272;-69
2021/04/07 07:31:57;;;;;;;4.00;1.20;;;;;;;;;;5040724;28;20287;-69
2021/04/07 07:34:26;;;;;;;2.57;1.13;;;;;;;;;;5043425;28;20256;-69
2021/04/07 07:36:51;;;;;;;4.40;1.50;;;;;;;;;;5034513;28;20270;-69
2021/04/07 07:39:22;;;;;;;2.83;1.50;;;;;;;;;;5046602;28;20727;-69
2021/04/07 07:41:48;;;;;;;5.33;1.70;;;;;;;;;;5042920;28;20013;-69
2021/04/07 07:44:14;;;;;;;4.73;1.40;;;;;;;;;;5046734;28;20274;-69
2021/04/07 07:46:40;;;;;;;3.17;1.40;;;;;;;;;;5033692;28;20029;-69
2021/04/07 07:49:12;;;;;;;4.03;1.47;;;;;;;;;;5038326;28;20675;-69
2021/04/07 07:51:43;;;;;;;5.43;1.85;;;;;;;;;;5046433;28;20267;-69
2021/04/07 07:54:12;;;;;;;2.77;1.47;;;;;;;;;;5038770;28;20076;-70
2021/04/07 07:56:37;;;;;;;4.50;1.40;;;;;;;;;;5031208;28;20823;-69
2021/04/07 07:59:03;;;;;;;3.70;1.47;;;;;;;;;;5032303;28;20283;-69
2021/04/07 08:01:39;;;;;;;2.17;1.00;;;;;;;;;;5042765;28;20402;-70
2021/04/07 08:04:05;;;;;;;3.40;1.53;;;;;;;;;;5036993;28;20469;-69
2021/04/07 08:06:30;;;;;;;2.87;1.50;;;;;;;;;;5044867;28;20271;-69
2021/04/07 08:08:56;;;;;;;3.57;1.57;;;;;;;;;;5036662;28;20071;-70
2021/04/07 08:11:23;;;;;;;3.30;1.53;;;;;;;;;;5045515;28;20023;-69
2021/04/07 08:13:50;;;;;;;4.03;1.77;;;;;;;;;;5029710;28;20278;-69
2021/04/07 08:16:16;;;;;;;5.23;1.90;;;;;;;;;;5043677;28;20252;-69
2021/04/07 08:18:44;;;;;;;5.37;1.87;;;;;;;;;;5025893;28;20331;-69
2021/04/07 08:21:09;;;;;;;4.50;1.60;;;;;;;;;;5043508;28;20739;-69
2021/04/07 08:23:36;;;;;;;4.00;1.93;;;;;;;;;;5039971;28;20259;-69
2021/04/07 08:26:02;;;;;;;3.00;1.50;;;;;;;;;;5043083;28;20090;-69
2021/04/07 08:28:28;;;;;;;3.53;1.47;;;;;;;;;;5046561;28;20271;-69
2021/04/07 08:30:53;;;;;;;2.20;1.27;;;;;;;;;;5048035;28;20028;-70
2021/04/07 08:33:20;;;;;;;3.27;1.30;;;;;;;;;;5046217;28;20668;-70
2021/04/07 08:35:46;;;;;;;3.63;1.60;;;;;;;;;;5040932;28;20021;-70
2021/04/07 08:38:11;;;;;;;4.13;1.87;;;;;;;;;;5045544;28;20255;-70
2021/04/07 08:40:38;;;;;;;6.77;2.10;;;;;;;;;;5039517;28;20064;-70
2021/04/07 08:43:04;;;;;;;3.90;1.70;;;;;;;;;;5048719;28;20108;-71
2021/04/07 08:45:36;;;;;;;5.73;2.20;;;;;;;;;;5047635;28;21334;-70
2021/04/07 08:48:06;;;;;;;4.72;1.38;;;;;;;;;;5036564;28;20032;-70
2021/04/07 08:50:32;;;;;;;4.87;1.40;;;;;;;;;;5038807;28;20033;-70
2021/04/07 08:52:57;;;;;;;3.47;1.47;;;;;;;;;;5046808;28;20333;-70
2021/04/07 08:55:24;;;;;;;4.20;1.67;;;;;;;;;;5035879;28;20021;-68
2021/04/07 08:58:03;;;;;;;5.60;1.60;;;;;;;;;;5035721;28;20022;-68
2021/04/07 09:00:29;;;;;;;4.70;1.90;;;;;;;;;;5048243;28;20272;-68
2021/04/07 09:02:58;;;;;;;4.17;1.37;;;;;;;;;;5035186;28;20271;-68
2021/04/07 09:05:31;;;;;;;4.40;1.50;;;;;;;;;;5046999;28;20271;-68
2021/04/07 09:07:56;;;;;;;;;;;;;;;;;;5046707;28;20263;-68
2021/04/07 09:10:22;;;;;;;3.08;1.45;;;;;;;;;;5037528;28;19909;-68
2021/04/07 09:12:48;;;;;;;3.67;1.70;;;;;;;;;;5044641;28;20103;-68
2021/04/07 09:15:26;;;;;;;6.20;1.80;;;;;;;;;;5039458;28;20021;-68
2021/04/07 09:17:55;;;;;;;4.37;1.70;;;;;;;;;;5035578;28;20723;-67
2021/04/07 09:20:33;;;;;;;5.47;1.77;;;;;;;;;;5031019;28;20101;-68
2021/04/07 09:23:08;;;;;;;4.30;1.73;;;;;;;;;;5045072;28;20700;-68
2021/04/07 09:25:33;;;;;;;3.70;1.20;;;;;;;;;;5046155;28;20271;-68
2021/04/07 09:28:08;;;;;;;4.90;1.80;;;;;;;;;;5037404;28;20469;-68
2021/04/07 09:30:39;;;;;;;5.80;1.70;;;;;;;;;;5037227;28;20438;-68
2021/04/07 09:33:06;;;;;;;5.83;1.43;;;;;;;;;;5036868;28;20512;-68
2021/04/07 09:35:31;;;;;;;4.70;1.30;;;;;;;;;;5048629;28;20029;-68
2021/04/07 09:37:58;;;;;;;3.10;1.33;;;;;;;;;;5040155;28;20021;-68
2021/04/07 09:40:23;;;;;;;4.03;1.70;;;;;;;;;;5044943;28;20017;-68
2021/04/07 09:42:49;;;;;;;5.63;1.57;;;;;;;;;;5038467;28;20028;-68
2021/04/07 09:45:24;;;;;;;5.03;1.50;;;;;;;;;;5034690;28;20030;-68
2021/04/07 09:47:53;;;;;;;4.30;1.73;;;;;;;;;;5051199;28;20021;-68
2021/04/07 09:50:20;;;;;;;2.97;1.20;;;;;;;;;;5041045;28;20374;-68
2021/04/07 09:52:46;;;;;;;4.23;1.93;;;;;;;;;;5052818;28;20457;-69
2021/04/07 09:55:21;;;;;;;3.33;1.33;;;;;;;;;;5038338;28;20013;-70
2021/04/07 09:57:56;;;;;;;4.03;1.40;;;;;;;;;;5038995;28;20411;-70
2021/04/07 10:00:27;;;;;;;2.73;1.00;;;;;;;;;;5052092;28;20021;-70
2021/04/07 10:02:52;;;;;;;2.83;1.30;;;;;;;;;;5049778;28;20496;-69
2021/04/07 10:05:25;;;;;;;3.23;1.20;;;;;;;;;;5045134;28;20026;-68
2021/04/07 10:07:50;;;;;;;3.90;1.50;;;;;;;;;;5033242;28;20364;-68
2021/04/07 10:10:15;;;;;;;5.53;1.60;;;;;;;;;;5040085;28;20025;-68
2021/04/07 10:12:41;;;;;;;3.67;1.67;;;;;;;;;;5047645;28;20037;-68
2021/04/07 10:15:06;;;;;;;4.07;1.30;;;;;;;;;;5033400;28;20103;-69
2021/04/07 10:17:33;;;;;;;3.67;1.30;;;;;;;;;;5038892;28;20037;-68
2021/04/07 10:20:08;;;;;;;3.33;1.33;;;;;;;;;;5041960;28;20025;-68
2021/04/07 10:22:33;;;;;;;3.67;1.30;;;;;;;;;;5039569;28;20373;-68
2021/04/07 10:25:04;;;;;;;4.27;1.40;;;;;;;;;;5045179;28;20029;-68
2021/04/07 10:27:30;;;;;;;3.37;1.40;;;;;;;;;;5048505;28;20044;-69
2021/04/07 10:30:05;;;;;;;3.80;1.20;;;;;;;;;;5035355;28;20029;-68
2021/04/07 10:32:37;;;;;;;5.13;1.50;;;;;;;;;;5035296;28;20475;-68
2021/04/07 10:35:03;;;;;;;6.03;1.55;;;;;;;;;;5041097;28;20025;-68
2021/04/07 10:37:29;;;;;;;6.43;1.67;;;;;;;;;;5038270;28;20013;-68
2021/04/07 10:39:54;;;;;;;4.83;1.70;;;;;;;;;;5042966;28;20021;-68
2021/04/07 10:42:19;;;;;;;5.20;1.63;;;;;;;;;;5031074;28;20021;-68
2021/04/07 10:45:05;;;;;;;5.13;1.40;;;;;;;;;;5032468;28;20058;-68
2021/04/07 10:47:34;;;;;;;2.50;1.13;;;;;;;;;;5038229;28;20044;-68
2021/04/07 10:50:00;;;;;;;4.07;1.43;;;;;;;;;;5046994;28;20075;-68
2021/04/07 10:52:29;;;;;;;4.07;1.13;;;;;;;;;;5042901;28;20424;-68
2021/04/07 10:54:55;;;;;;;2.23;1.23;;;;;;;;;;5045307;28;20075;-68
2021/04/07 10:57:29;;;;;;;4.23;1.47;;;;;;;;;;5042282;28;20014;-68
2021/04/07 10:59:54;;;;;;;3.63;1.00;;;;;;;;;;5036267;28;20013;-68
2021/04/07 11:02:19;;;;;;;4.23;1.30;;;;;;;;;;5045673;28;20449;-67
2021/04/07 11:04:44;;;;;;;2.73;1.17;;;;;;;;;;5035394;28;20030;-68
2021/04/07 11:07:15;;;;;;;2.07;0.90;;;;;;;;;;5032379;28;20476;-68
2021/04/07 11:09:48;;;;;;;3.07;0.83;;;;;;;;;;5028769;28;20040;-68
2021/04/07 11:12:14;;;;;;;3.05;0.85;;;;;;;;;;5035472;28;20280;-69
2021/04/07 11:14:41;;;;;;;3.10;0.80;;;;;;;;;;5015173;28;20025;-69
2021/04/07 11:17:13;;;;;;;2.67;1.07;;;;;;;;;;5045711;28;20748;-68
2021/04/07 11:19:38;;;;;;;0.90;0.65;;;;;;;;;;5034177;28;20265;-69
2021/04/07 11:22:05;;;;;;;2.67;1.13;;;;;;;;;;5030940;28;20349;-68
2021/04/07 11:24:30;;;;;;;1.30;0.57;;;;;;;;;;5030435;28;20489;-69
2021/04/07 11:26:56;;;;;;;3.70;0.70;;;;;;;;;;5040372;28;20260;-69
2021/04/07 11:29:21;;;;;;;0.90;0.60;;;;;;;;;;5031799;28;20051;-68
2021/04/07 11:31:50;;;;;;;5.07;1.73;;;;;;;;;;5048105;28;20028;-69
2021/04/07 11:34:18;;;;;;;2.87;0.60;;;;;;;;;;5049110;28;20013;-69
2021/04/07 11:37:08;;;;;;;3.53;0.80;;;;;;;;;;5045311;28;20256;-69
2021/04/07 11:39:42;;;;;;;5.00;0.90;;;;;;;;;;5042952;28;20405;-69
2021/04/07 11:42:12;;;;;;;3.10;0.93;;;;;;;;;;5042501;28;20337;-69
2021/04/07 11:44:37;;;;;;;7.93;1.40;;;;;;;;;;5033004;28;20029;-68
2021/04/07 11:47:03;;;;;;;3.63;0.90;;;;;;;;;;5047657;28;20462;-69
2021/04/07 11:49:29;;;;;;;8.57;1.00;;;;;;;;;;5038592;28;20481;-69
2021/04/07 11:51:54;;;;;;;4.70;1.20;;;;;;;;;;5044193;28;20119;-69
2021/04/07 11:54:20;;;;;;;4.50;0.90;;;;;;;;;;5045148;28;20093;-69
2021/04/07 11:56:47;;;;;;;4.53;0.90;;;;;;;;;;5038456;28;20035;-69
2021/04/07 11:59:13;;;;;;;5.13;1.30;;;;;;;;;;5048106;28;20071;-69
2021/04/07 12:01:38;;;;;;;2.87;0.93;;;;;;;;;;5036966;28;20045;-69
2021/04/07 12:04:04;;;;;;;6.83;1.03;;;;;;;;;;5028085;28;20032;-69
2021/04/07 12:06:29;;;;;;;5.30;0.90;;;;;;;;;;5042690;28;20018;-69
2021/04/07 12:08:54;;;;;;;5.70;1.20;;;;;;;;;;5048616;28;20013;-69
2021/04/07 12:11:20;;;;;;;6.27;1.03;;;;;;;;;;5040056;28;20350;-69
2021/04/07 12:13:45;;;;;;;5.43;0.90;;;;;;;;;;5039796;28;20519;-69
2021/04/07 12:16:10;;;;;;;2.97;0.83;;;;;;;;;;5044713;28;20515;-69
2021/04/07 12:18:36;;;;;;;3.87;0.77;;;;;;;;;;5045060;28;20473;-69
2021/04/07 12:21:01;;;;;;;3.73;0.70;;;;;;;;;;5044003;28;20017;-69
2021/04/07 12:23:26;;;;;;;1.97;0.53;;;;;;;;;;5048640;28;20027;-69
2021/04/07 12:25:52;;;;;;;2.83;0.50;;;;;;;;;;5043638;28;20033;-69
2021/04/07 12:28:18;;;;;;;2.90;0.80;;;;;;;;;;5038430;28;20033;-69
2021/04/07 12:30:50;;;;;;;3.27;0.60;;;;;;;;;;5047736;28;20021;-69
2021/04/07 12:33:16;;;;;;;;;;;;;;;;;;5036614;28;20021;-71
2021/04/07 12:35:41;;;;;;;5.90;1.00;;;;;;;;;;5039802;28;19909;-69
2021/04/07 12:38:06;;;;;;;3.07;0.87;;;;;;;;;;5038424;28;20377;-69
2021/04/07 12:40:32;;;;;;;3.97;0.87;;;;;;;;;;5033702;28;20097;-68
2021/04/07 12:42:57;;;;;;;4.40;0.90;;;;;;;;;;5036701;28;20025;-69
2021/04/07 12:45:22;;;;;;;6.50;0.80;;;;;;;;;;5035123;28;20036;-69
2021/04/07 12:47:48;;;;;;;5.20;0.90;;;;;;;;;;5040666;28;20599;-68
2021/04/07 12:50:13;;;;;;;7.97;0.87;;;;;;;;;;5045310;28;20060;-69
2021/04/07 12:52:38;;;;;;;4.83;1.10;;;;;;;;;;5033821;28;20029;-69
2021/04/07 12:55:04;;;;;;;5.60;0.93;;;;;;;;;;5035882;28;20172;-69
2021/04/07 12:57:29;;;;;;;1.87;0.67;;;;;;;;;;5034682;28;20494;-68
2021/04/07 12:59:55;;;;;;;9.90;0.90;;;;;;;;;;5033583;28;20518;-69
2021/04/07 13:02:20;;;;;;;6.37;1.07;;;;;;;;;;5020507;28;20135;-68
2021/04/07 13:04:45;;;;;;;8.80;0.77;;;;;;;;;;5047947;28;20430;-69
2021/04/07 13:07:11;;;;;;;5.47;0.70;;;;;;;;;;5033289;28;20030;-69
2021/04/07 13:09:37;;;;;;;1.97;0.50;;;;;;;;;;5045550;28;20362;-69
2021/04/07 13:12:02;;;;;;;2.93;0.87;;;;;;;;;;5031775;28;20026;-69
2021/04/07 13:14:29;;;;;;;1.40;0.60;;;;;;;;;;5034381;28;20072;-69
2021/04/07 13:16:57;;;;;;;3.30;0.80;;;;;;;;;;5036625;28;20458;-69
2021/04/07 13:19:23;;;;;;;3.20;1.00;;;;;;;;;;5041964;28;20018;-69
2021/04/07 13:21:49;;;;;;;5.73;0.97;;;;;;;;;;5038071;28;20128;-69
2021/04/07 13:24:15;;;;;;;2.50;0.80;;;;;;;;;;5033075;28;20478;-69
2021/04/07 13:26:40;;;;;;;4.43;0.67;;;;;;;;;;5045962;28;20355;-69
2021/04/07 13:29:05;;;;;;;1.47;0.50;;;;;;;;;;5040140;28;20023;-69
2021/04/07 13:31:31;;;;;;;5.83;1.40;;;;;;;;;;5044831;28;20024;-69
2021/04/07 13:33:59;;;;;;;2.53;0.50;;;;;;;;;;5034864;28;20052;-69
2021/04/07 13:39:22;;;;;;;3.50;0.67;;;;;;;;;;5019321;28;20056;-68
2021/04/07 13:42:42;;;;;;;11.57;1.10;;;;;;;;;;5038242;28;20021;-68
2021/04/07 13:44:35;;;;;;;5.70;1.13;;;;;;;;;;5034598;28;20413;-68
2021/04/07 13:47:01;;;;;;;7.80;0.87;;;;;;;;;;5040502;28;20018;-68
2021/04/07 13:49:27;;;;;;;4.03;0.67;;;;;;;;;;5047923;28;20528;-68
2021/04/07 13:51:52;;;;;;;3.60;0.90;;;;;;;;;;5044657;28;20020;-68
2021/04/07 13:54:17;;;;;;;3.63;0.80;;;;;;;;;;5021958;28;20466;-68
2021/04/07 13:57:04;;;;;;;2.33;0.63;;;;;;;;;;5041226;28;20044;-68
2021/04/07 13:59:28;;;;;;;6.63;0.80;;;;;;;;;;5043307;28;20714;-68
2021/04/07 14:01:53;;;;;;;5.03;0.80;;;;;;;;;;5037930;28;20172;-68
2021/04/07 14:04:18;;;;;;;5.13;0.87;;;;;;;;;;5038860;28;20034;-68
2021/04/07 14:06:44;;;;;;;3.80;0.77;;;;;;;;;;5042051;28;20025;-68
2021/04/07 14:09:09;;;;;;;5.20;0.87;;;;;;;;;;5039234;28;20433;-68
2021/04/07 14:11:34;;;;;;;3.30;0.80;;;;;;;;;;5037875;28;20037;-68
2021/04/07 14:14:00;;;;;;;1.13;0.43;;;;;;;;;;5045892;28;20103;-68
2021/04/07 14:16:25;;;;;;;3.07;0.60;;;;;;;;;;5043588;28;20028;-68
2021/04/07 14:18:50;;;;;;;2.13;0.80;;;;;;;;;;5042970;28;20020;-68
2021/04/07 14:21:16;;;;;;;1.83;1.00;;;;;;;;;;5040615;28;20023;-68
2021/04/07 14:23:41;;;;;;;3.43;0.70;;;;;;;;;;5044998;28;20151;-68
2021/04/07 14:26:10;;;;;;;10.17;1.23;;;;;;;;;;5046385;28;20049;-68
2021/04/07 14:28:35;;;;;;;3.17;0.53;;;;;;;;;;5043722;28;20115;-68
2021/04/07 14:31:00;;;;;;;1.90;0.60;;;;;;;;;;5037031;28;20104;-68
2021/04/07 14:33:25;;;;;;;2.80;0.80;;;;;;;;;;5051569;28;20051;-68
2021/04/07 14:35:51;;;;;;;3.10;0.70;;;;;;;;;;5041097;28;20028;-68
2021/04/07 14:38:17;;;;;;;6.00;0.60;;;;;;;;;;5048139;28;20017;-68
2021/04/07 14:40:44;;;;;;;5.23;0.60;;;;;;;;;;5035532;28;20337;-68
2021/04/07 14:43:09;;;;;;;5.17;1.43;;;;;;;;;;5042562;28;20021;-68